sensor_id;sensor_type;location;lat;lon;timestamp;temperature;humidity
37528;DHT22;23372;52.050;4.810;2022-07-29T00:01:20;16.20;99.90
37528;DHT22;23372;52.050;4.810;2022-07-29T00:03:46;16.20;99.90
37528;DHT22;23372;52.050;4.810;2022-07-29T00:06:11;16.20;99.90
37528;DHT22;23372;52.050;4.810;2022-07-29T00:08:37;16.20;99.90
37528;DHT22;23372;52.050;4.810;2022-07-29T00:11:02;16.20;99.90
37528;DHT22;23372;52.050;4.810;2022-07-29T00:13:28;16.10;99.90
37528;DHT22;23372;52.050;4.810;2022-07-29T00:15:54;16.10;99.90
37528;DHT22;23372;52.050;4.810;2022-07-29T00:18:19;16.00;99.90
37528;DHT22;23372;52.050;4.810;2022-07-29T00:20:45;16.00;99.90
37528;DHT22;23372;52.050;4.810;2022-07-29T00:23:10;16.00;99.90
37528;DHT22;23372;52.050;4.810;2022-07-29T00:25:36;16.10;99.90
37528;DHT22;23372;52.050;4.810;2022-07-29T00:28:01;16.00;99.90
37528;DHT22;23372;52.050;4.810;2022-07-29T00:30:27;16.10;99.90
37528;DHT22;23372;52.050;4.810;2022-07-29T00:32:52;16.10;99.90
37528;DHT22;23372;52.050;4.810;2022-07-29T00:35:18;16.10;99.90
37528;DHT22;23372;52.050;4.810;2022-07-29T00:38:02;16.10;99.90
37528;DHT22;23372;52.050;4.810;2022-07-29T00:40:27;16.10;99.90
37528;DHT22;23372;52.050;4.810;2022-07-29T00:42:53;16.10;99.90
37528;DHT22;23372;52.050;4.810;2022-07-29T00:45:19;16.10;99.90
37528;DHT22;23372;52.050;4.810;2022-07-29T00:47:45;16.10;99.90
37528;DHT22;23372;52.050;4.810;2022-07-29T00:50:12;16.10;99.90
37528;DHT22;23372;52.050;4.810;2022-07-29T00:52:39;16.10;99.90
37528;DHT22;23372;52.050;4.810;2022-07-29T00:55:07;16.10;99.90
37528;DHT22;23372;52.050;4.810;2022-07-29T00:57:34;16.10;99.90
37528;DHT22;23372;52.050;4.810;2022-07-29T01:00:00;16.10;99.90
37528;DHT22;23372;52.050;4.810;2022-07-29T01:02:25;16.00;99.90
37528;DHT22;23372;52.050;4.810;2022-07-29T01:04:52;16.00;99.90
37528;DHT22;23372;52.050;4.810;2022-07-29T01:07:18;16.00;99.90
37528;DHT22;23372;52.050;4.810;2022-07-29T01:09:45;16.00;99.90
37528;DHT22;23372;52.050;4.810;2022-07-29T01:12:22;16.00;99.90
37528;DHT22;23372;52.050;4.810;2022-07-29T01:14:48;16.00;99.90
37528;DHT22;23372;52.050;4.810;2022-07-29T01:17:21;15.90;99.90
37528;DHT22;23372;52.050;4.810;2022-07-29T01:19:53;15.90;99.90
37528;DHT22;23372;52.050;4.810;2022-07-29T01:30:38;16.00;99.90
37528;DHT22;23372;52.050;4.810;2022-07-29T01:33:13;16.00;99.90
37528;DHT22;23372;52.050;4.810;2022-07-29T01:36:01;16.00;99.90
37528;DHT22;23372;52.050;4.810;2022-07-29T01:38:30;16.00;99.90
37528;DHT22;23372;52.050;4.810;2022-07-29T01:40:59;15.90;99.90
37528;DHT22;23372;52.050;4.810;2022-07-29T01:43:34;15.90;99.90
37528;DHT22;23372;52.050;4.810;2022-07-29T01:46:06;15.90;99.90
37528;DHT22;23372;52.050;4.810;2022-07-29T01:48:45;15.90;99.90
37528;DHT22;23372;52.050;4.810;2022-07-29T01:51:18;15.80;99.90
37528;DHT22;23372;52.050;4.810;2022-07-29T01:54:52;15.80;99.90
37528;DHT22;23372;52.050;4.810;2022-07-29T01:56:53;15.70;99.90
37528;DHT22;23372;52.050;4.810;2022-07-29T01:59:20;15.70;99.90
37528;DHT22;23372;52.050;4.810;2022-07-29T02:01:47;15.60;99.90
37528;DHT22;23372;52.050;4.810;2022-07-29T02:04:15;15.60;99.90
37528;DHT22;23372;52.050;4.810;2022-07-29T02:06:42;15.60;99.90
37528;DHT22;23372;52.050;4.810;2022-07-29T02:09:10;15.60;99.90
37528;DHT22;23372;52.050;4.810;2022-07-29T02:11:38;15.60;99.90
37528;DHT22;23372;52.050;4.810;2022-07-29T02:14:05;15.50;99.90
37528;DHT22;23372;52.050;4.810;2022-07-29T02:16:33;15.60;99.90
37528;DHT22;23372;52.050;4.810;2022-07-29T02:19:01;15.60;99.90
37528;DHT22;23372;52.050;4.810;2022-07-29T02:21:27;15.50;99.90
37528;DHT22;23372;52.050;4.810;2022-07-29T02:23:56;15.50;99.90
37528;DHT22;23372;52.050;4.810;2022-07-29T02:26:25;15.50;99.90
37528;DHT22;23372;52.050;4.810;2022-07-29T02:28:55;15.50;99.90
37528;DHT22;23372;52.050;4.810;2022-07-29T02:31:24;15.50;99.90
37528;DHT22;23372;52.050;4.810;2022-07-29T02:33:52;15.50;99.90
37528;DHT22;23372;52.050;4.810;2022-07-29T02:36:21;15.50;99.90
37528;DHT22;23372;52.050;4.810;2022-07-29T02:38:48;15.50;99.90
37528;DHT22;23372;52.050;4.810;2022-07-29T02:43:47;15.50;99.90
37528;DHT22;23372;52.050;4.810;2022-07-29T02:46:18;15.40;99.90
37528;DHT22;23372;52.050;4.810;2022-07-29T02:48:51;15.40;99.90
37528;DHT22;23372;52.050;4.810;2022-07-29T02:51:26;15.40;99.90
37528;DHT22;23372;52.050;4.810;2022-07-29T02:53:56;15.40;99.90
37528;DHT22;23372;52.050;4.810;2022-07-29T02:56:27;15.40;99.90
37528;DHT22;23372;52.050;4.810;2022-07-29T02:58:56;15.40;99.90
37528;DHT22;23372;52.050;4.810;2022-07-29T03:01:30;15.40;99.90
37528;DHT22;23372;52.050;4.810;2022-07-29T03:03:56;15.30;99.90
37528;DHT22;23372;52.050;4.810;2022-07-29T03:06:26;15.40;99.90
37528;DHT22;23372;52.050;4.810;2022-07-29T03:08:54;15.30;99.90
37528;DHT22;23372;52.050;4.810;2022-07-29T03:11:20;15.30;99.90
37528;DHT22;23372;52.050;4.810;2022-07-29T03:13:47;15.30;99.90
37528;DHT22;23372;52.050;4.810;2022-07-29T03:16:13;15.20;99.90
37528;DHT22;23372;52.050;4.810;2022-07-29T03:18:39;15.20;99.90
37528;DHT22;23372;52.050;4.810;2022-07-29T03:21:04;15.20;99.90
37528;DHT22;23372;52.050;4.810;2022-07-29T03:23:30;15.20;99.90
37528;DHT22;23372;52.050;4.810;2022-07-29T03:25:56;15.20;99.90
37528;DHT22;23372;52.050;4.810;2022-07-29T03:28:22;15.20;99.90
37528;DHT22;23372;52.050;4.810;2022-07-29T03:30:48;15.20;99.90
37528;DHT22;23372;52.050;4.810;2022-07-29T03:33:14;15.10;99.90
37528;DHT22;23372;52.050;4.810;2022-07-29T03:35:40;15.10;99.90
37528;DHT22;23372;52.050;4.810;2022-07-29T03:38:05;15.20;99.90
37528;DHT22;23372;52.050;4.810;2022-07-29T03:43:04;15.10;99.90
37528;DHT22;23372;52.050;4.810;2022-07-29T03:45:32;15.10;99.90
37528;DHT22;23372;52.050;4.810;2022-07-29T03:48:10;15.10;99.90
37528;DHT22;23372;52.050;4.810;2022-07-29T03:50:37;15.10;99.90
37528;DHT22;23372;52.050;4.810;2022-07-29T03:53:03;15.10;99.90
37528;DHT22;23372;52.050;4.810;2022-07-29T03:55:32;15.10;99.90
37528;DHT22;23372;52.050;4.810;2022-07-29T03:57:59;15.10;99.90
37528;DHT22;23372;52.050;4.810;2022-07-29T04:00:27;15.10;99.90
37528;DHT22;23372;52.050;4.810;2022-07-29T04:02:53;15.10;99.90
37528;DHT22;23372;52.050;4.810;2022-07-29T04:05:18;15.10;99.90
37528;DHT22;23372;52.050;4.810;2022-07-29T04:07:45;15.10;99.90
37528;DHT22;23372;52.050;4.810;2022-07-29T04:10:11;15.00;99.90
37528;DHT22;23372;52.050;4.810;2022-07-29T04:12:37;15.00;99.90
37528;DHT22;23372;52.050;4.810;2022-07-29T04:15:05;15.00;99.90
37528;DHT22;23372;52.050;4.810;2022-07-29T04:17:31;15.00;99.90
37528;DHT22;23372;52.050;4.810;2022-07-29T04:19:57;15.00;99.90
37528;DHT22;23372;52.050;4.810;2022-07-29T04:22:22;15.10;99.90
37528;DHT22;23372;52.050;4.810;2022-07-29T04:24:48;15.00;99.90
37528;DHT22;23372;52.050;4.810;2022-07-29T04:27:13;15.00;99.90
37528;DHT22;23372;52.050;4.810;2022-07-29T04:29:39;15.00;99.90
37528;DHT22;23372;52.050;4.810;2022-07-29T04:32:04;15.10;99.90
37528;DHT22;23372;52.050;4.810;2022-07-29T04:34:30;15.20;99.90
37528;DHT22;23372;52.050;4.810;2022-07-29T04:36:56;15.20;99.90
37528;DHT22;23372;52.050;4.810;2022-07-29T04:39:21;15.20;99.90
37528;DHT22;23372;52.050;4.810;2022-07-29T04:41:47;15.20;99.90
37528;DHT22;23372;52.050;4.810;2022-07-29T04:44:13;15.20;99.90
37528;DHT22;23372;52.050;4.810;2022-07-29T04:46:38;15.30;99.90
37528;DHT22;23372;52.050;4.810;2022-07-29T04:49:04;15.30;99.90
37528;DHT22;23372;52.050;4.810;2022-07-29T04:51:30;15.30;99.90
37528;DHT22;23372;52.050;4.810;2022-07-29T04:53:55;15.30;99.90
37528;DHT22;23372;52.050;4.810;2022-07-29T04:56:21;15.20;99.90
37528;DHT22;23372;52.050;4.810;2022-07-29T04:58:46;15.30;99.90
37528;DHT22;23372;52.050;4.810;2022-07-29T05:01:12;15.30;99.90
37528;DHT22;23372;52.050;4.810;2022-07-29T05:03:39;15.20;99.90
37528;DHT22;23372;52.050;4.810;2022-07-29T05:06:05;15.20;99.90
37528;DHT22;23372;52.050;4.810;2022-07-29T05:08:30;15.20;99.90
37528;DHT22;23372;52.050;4.810;2022-07-29T05:10:56;15.20;99.90
37528;DHT22;23372;52.050;4.810;2022-07-29T05:13:21;15.20;99.90
37528;DHT22;23372;52.050;4.810;2022-07-29T05:15:47;15.20;99.90
37528;DHT22;23372;52.050;4.810;2022-07-29T05:18:12;15.20;99.90
37528;DHT22;23372;52.050;4.810;2022-07-29T05:20:38;15.20;99.90
37528;DHT22;23372;52.050;4.810;2022-07-29T05:23:03;15.20;99.90
37528;DHT22;23372;52.050;4.810;2022-07-29T05:25:29;15.20;99.90
37528;DHT22;23372;52.050;4.810;2022-07-29T05:27:55;15.10;99.90
37528;DHT22;23372;52.050;4.810;2022-07-29T05:30:21;15.10;99.90
37528;DHT22;23372;52.050;4.810;2022-07-29T05:32:47;15.20;99.90
37528;DHT22;23372;52.050;4.810;2022-07-29T05:35:13;15.10;99.90
37528;DHT22;23372;52.050;4.810;2022-07-29T05:37:39;15.10;99.90
37528;DHT22;23372;52.050;4.810;2022-07-29T05:40:05;15.10;99.90
37528;DHT22;23372;52.050;4.810;2022-07-29T05:42:31;15.10;99.90
37528;DHT22;23372;52.050;4.810;2022-07-29T05:44:56;15.10;99.90
37528;DHT22;23372;52.050;4.810;2022-07-29T05:47:22;15.10;99.90
37528;DHT22;23372;52.050;4.810;2022-07-29T05:49:48;15.20;99.90
37528;DHT22;23372;52.050;4.810;2022-07-29T05:52:14;15.10;99.90
37528;DHT22;23372;52.050;4.810;2022-07-29T05:54:40;15.10;99.90
37528;DHT22;23372;52.050;4.810;2022-07-29T05:57:05;15.20;99.90
37528;DHT22;23372;52.050;4.810;2022-07-29T05:59:35;15.20;99.90
37528;DHT22;23372;52.050;4.810;2022-07-29T06:02:01;15.30;99.90
37528;DHT22;23372;52.050;4.810;2022-07-29T06:04:26;15.30;99.90
37528;DHT22;23372;52.050;4.810;2022-07-29T06:06:52;15.30;99.90
37528;DHT22;23372;52.050;4.810;2022-07-29T06:09:18;15.30;99.90
37528;DHT22;23372;52.050;4.810;2022-07-29T06:11:43;15.50;99.90
37528;DHT22;23372;52.050;4.810;2022-07-29T06:14:09;15.50;99.90
37528;DHT22;23372;52.050;4.810;2022-07-29T06:16:34;15.60;99.90
37528;DHT22;23372;52.050;4.810;2022-07-29T06:19:00;15.80;99.90
37528;DHT22;23372;52.050;4.810;2022-07-29T06:21:25;15.90;99.90
37528;DHT22;23372;52.050;4.810;2022-07-29T06:23:51;15.90;99.90
37528;DHT22;23372;52.050;4.810;2022-07-29T06:26:16;16.10;99.90
37528;DHT22;23372;52.050;4.810;2022-07-29T06:28:42;16.30;99.90
37528;DHT22;23372;52.050;4.810;2022-07-29T06:31:07;16.40;99.90
37528;DHT22;23372;52.050;4.810;2022-07-29T06:33:33;16.50;99.90
37528;DHT22;23372;52.050;4.810;2022-07-29T06:35:58;16.50;99.90
37528;DHT22;23372;52.050;4.810;2022-07-29T06:38:25;16.60;99.90
37528;DHT22;23372;52.050;4.810;2022-07-29T06:40:50;16.70;99.90
37528;DHT22;23372;52.050;4.810;2022-07-29T06:43:29;16.80;99.90
37528;DHT22;23372;52.050;4.810;2022-07-29T06:45:58;17.00;99.90
37528;DHT22;23372;52.050;4.810;2022-07-29T06:48:23;17.00;99.90
37528;DHT22;23372;52.050;4.810;2022-07-29T06:50:49;17.00;99.90
37528;DHT22;23372;52.050;4.810;2022-07-29T06:53:15;17.00;99.90
37528;DHT22;23372;52.050;4.810;2022-07-29T06:55:40;17.20;99.90
37528;DHT22;23372;52.050;4.810;2022-07-29T06:58:06;17.40;99.90
37528;DHT22;23372;52.050;4.810;2022-07-29T07:00:33;17.60;99.90
37528;DHT22;23372;52.050;4.810;2022-07-29T07:02:58;17.80;99.90
37528;DHT22;23372;52.050;4.810;2022-07-29T07:05:23;18.10;99.90
37528;DHT22;23372;52.050;4.810;2022-07-29T07:07:49;18.30;99.90
37528;DHT22;23372;52.050;4.810;2022-07-29T07:10:15;18.60;99.90
37528;DHT22;23372;52.050;4.810;2022-07-29T07:12:40;18.90;99.90
37528;DHT22;23372;52.050;4.810;2022-07-29T07:15:06;19.10;99.90
37528;DHT22;23372;52.050;4.810;2022-07-29T07:17:32;19.10;99.90
37528;DHT22;23372;52.050;4.810;2022-07-29T07:19:57;19.00;99.90
37528;DHT22;23372;52.050;4.810;2022-07-29T07:22:23;19.10;99.90
37528;DHT22;23372;52.050;4.810;2022-07-29T07:24:48;19.00;99.90
37528;DHT22;23372;52.050;4.810;2022-07-29T07:27:14;19.00;99.90
37528;DHT22;23372;52.050;4.810;2022-07-29T07:29:39;18.90;99.90
37528;DHT22;23372;52.050;4.810;2022-07-29T07:32:06;19.00;99.90
37528;DHT22;23372;52.050;4.810;2022-07-29T07:34:32;19.10;99.90
37528;DHT22;23372;52.050;4.810;2022-07-29T07:36:58;19.20;99.90
37528;DHT22;23372;52.050;4.810;2022-07-29T07:39:24;19.20;99.90
37528;DHT22;23372;52.050;4.810;2022-07-29T07:41:51;19.20;99.90
37528;DHT22;23372;52.050;4.810;2022-07-29T07:44:17;19.30;99.90
37528;DHT22;23372;52.050;4.810;2022-07-29T07:46:42;19.40;99.90
37528;DHT22;23372;52.050;4.810;2022-07-29T07:49:10;19.50;99.90
37528;DHT22;23372;52.050;4.810;2022-07-29T07:51:35;19.50;99.90
37528;DHT22;23372;52.050;4.810;2022-07-29T07:54:01;19.50;99.90
37528;DHT22;23372;52.050;4.810;2022-07-29T07:56:27;19.60;99.90
37528;DHT22;23372;52.050;4.810;2022-07-29T07:58:52;19.60;99.90
37528;DHT22;23372;52.050;4.810;2022-07-29T08:01:18;19.80;99.90
37528;DHT22;23372;52.050;4.810;2022-07-29T08:03:46;20.00;99.90
37528;DHT22;23372;52.050;4.810;2022-07-29T08:06:11;20.10;99.90
37528;DHT22;23372;52.050;4.810;2022-07-29T08:08:37;20.50;99.90
37528;DHT22;23372;52.050;4.810;2022-07-29T08:11:02;20.60;99.90
37528;DHT22;23372;52.050;4.810;2022-07-29T08:13:29;20.60;99.90
37528;DHT22;23372;52.050;4.810;2022-07-29T08:15:56;20.40;99.90
37528;DHT22;23372;52.050;4.810;2022-07-29T08:18:36;20.50;99.90
37528;DHT22;23372;52.050;4.810;2022-07-29T08:21:02;20.60;99.90
37528;DHT22;23372;52.050;4.810;2022-07-29T08:23:27;20.60;99.90
37528;DHT22;23372;52.050;4.810;2022-07-29T08:26:00;20.60;99.90
37528;DHT22;23372;52.050;4.810;2022-07-29T08:28:26;20.70;99.90
37528;DHT22;23372;52.050;4.810;2022-07-29T08:30:51;20.70;99.90
37528;DHT22;23372;52.050;4.810;2022-07-29T08:33:17;20.60;99.90
37528;DHT22;23372;52.050;4.810;2022-07-29T08:35:43;20.30;99.90
37528;DHT22;23372;52.050;4.810;2022-07-29T08:38:09;20.10;99.90
37528;DHT22;23372;52.050;4.810;2022-07-29T08:40:35;20.20;99.90
37528;DHT22;23372;52.050;4.810;2022-07-29T08:43:05;20.30;99.90
37528;DHT22;23372;52.050;4.810;2022-07-29T08:48:06;20.40;99.90
37528;DHT22;23372;52.050;4.810;2022-07-29T08:50:35;20.50;99.90
37528;DHT22;23372;52.050;4.810;2022-07-29T08:53:01;20.50;99.90
37528;DHT22;23372;52.050;4.810;2022-07-29T08:55:27;20.60;99.90
37528;DHT22;23372;52.050;4.810;2022-07-29T08:57:53;20.70;99.90
37528;DHT22;23372;52.050;4.810;2022-07-29T09:00:19;20.70;99.90
37528;DHT22;23372;52.050;4.810;2022-07-29T09:02:48;20.70;99.90
37528;DHT22;23372;52.050;4.810;2022-07-29T09:05:17;20.90;99.90
37528;DHT22;23372;52.050;4.810;2022-07-29T09:07:43;20.90;99.90
37528;DHT22;23372;52.050;4.810;2022-07-29T09:10:12;21.00;99.90
37528;DHT22;23372;52.050;4.810;2022-07-29T09:12:38;21.00;99.90
37528;DHT22;23372;52.050;4.810;2022-07-29T09:15:04;20.90;99.90
37528;DHT22;23372;52.050;4.810;2022-07-29T09:17:47;21.00;99.90
37528;DHT22;23372;52.050;4.810;2022-07-29T09:20:17;21.10;99.90
37528;DHT22;23372;52.050;4.810;2022-07-29T09:22:44;21.20;99.90
37528;DHT22;23372;52.050;4.810;2022-07-29T09:25:14;21.40;99.90
37528;DHT22;23372;52.050;4.810;2022-07-29T09:27:40;21.60;99.90
37528;DHT22;23372;52.050;4.810;2022-07-29T09:30:10;21.70;99.90
37528;DHT22;23372;52.050;4.810;2022-07-29T09:32:55;21.80;99.90
37528;DHT22;23372;52.050;4.810;2022-07-29T09:35:23;21.90;99.90
37528;DHT22;23372;52.050;4.810;2022-07-29T09:37:50;22.00;99.90
37528;DHT22;23372;52.050;4.810;2022-07-29T09:40:24;22.00;99.90
37528;DHT22;23372;52.050;4.810;2022-07-29T09:42:52;22.10;99.90
37528;DHT22;23372;52.050;4.810;2022-07-29T09:45:30;22.00;99.90
37528;DHT22;23372;52.050;4.810;2022-07-29T09:47:56;22.00;99.90
37528;DHT22;23372;52.050;4.810;2022-07-29T09:50:41;22.10;99.90
37528;DHT22;23372;52.050;4.810;2022-07-29T09:53:07;22.20;99.90
37528;DHT22;23372;52.050;4.810;2022-07-29T09:55:49;22.30;99.90
37528;DHT22;23372;52.050;4.810;2022-07-29T09:58:19;22.30;99.90
37528;DHT22;23372;52.050;4.810;2022-07-29T10:00:46;22.30;99.90
37528;DHT22;23372;52.050;4.810;2022-07-29T10:03:14;22.10;99.90
37528;DHT22;23372;52.050;4.810;2022-07-29T10:05:40;22.20;99.90
37528;DHT22;23372;52.050;4.810;2022-07-29T10:08:08;22.30;99.90
37528;DHT22;23372;52.050;4.810;2022-07-29T10:10:36;22.40;99.90
37528;DHT22;23372;52.050;4.810;2022-07-29T10:13:08;22.50;99.90
37528;DHT22;23372;52.050;4.810;2022-07-29T10:15:36;22.50;99.90
37528;DHT22;23372;52.050;4.810;2022-07-29T10:18:03;22.50;99.90
37528;DHT22;23372;52.050;4.810;2022-07-29T10:20:29;22.40;99.90
37528;DHT22;23372;52.050;4.810;2022-07-29T10:22:56;22.50;99.90
37528;DHT22;23372;52.050;4.810;2022-07-29T10:25:22;22.90;99.90
37528;DHT22;23372;52.050;4.810;2022-07-29T10:27:49;23.20;99.90
37528;DHT22;23372;52.050;4.810;2022-07-29T10:30:16;23.30;99.90
37528;DHT22;23372;52.050;4.810;2022-07-29T10:35:54;23.60;99.90
37528;DHT22;23372;52.050;4.810;2022-07-29T10:38:47;23.90;99.90
37528;DHT22;23372;52.050;4.810;2022-07-29T10:44:06;24.20;99.90
37528;DHT22;23372;52.050;4.810;2022-07-29T10:46:38;23.90;99.90
37528;DHT22;23372;52.050;4.810;2022-07-29T10:52:01;23.90;99.90
37528;DHT22;23372;52.050;4.810;2022-07-29T11:00:30;24.40;99.90
37528;DHT22;23372;52.050;4.810;2022-07-29T11:05:06;24.80;99.90
37528;DHT22;23372;52.050;4.810;2022-07-29T11:07:35;25.10;99.90
37528;DHT22;23372;52.050;4.810;2022-07-29T11:15:05;25.50;99.90
37528;DHT22;23372;52.050;4.810;2022-07-29T11:22:58;26.00;99.90
37528;DHT22;23372;52.050;4.810;2022-07-29T11:25:24;25.90;99.90
37528;DHT22;23372;52.050;4.810;2022-07-29T11:27:51;26.00;99.90
37528;DHT22;23372;52.050;4.810;2022-07-29T11:30:18;26.30;99.90
37528;DHT22;23372;52.050;4.810;2022-07-29T11:32:44;26.40;99.90
37528;DHT22;23372;52.050;4.810;2022-07-29T11:35:17;26.10;99.90
37528;DHT22;23372;52.050;4.810;2022-07-29T11:37:45;26.30;99.90
37528;DHT22;23372;52.050;4.810;2022-07-29T11:40:13;26.80;99.90
37528;DHT22;23372;52.050;4.810;2022-07-29T11:42:41;27.00;99.90
37528;DHT22;23372;52.050;4.810;2022-07-29T11:45:11;27.00;99.90
37528;DHT22;23372;52.050;4.810;2022-07-29T11:47:52;27.40;99.90
37528;DHT22;23372;52.050;4.810;2022-07-29T11:50:36;27.30;99.90
37528;DHT22;23372;52.050;4.810;2022-07-29T11:53:10;27.50;99.90
37528;DHT22;23372;52.050;4.810;2022-07-29T11:55:39;27.60;99.90
37528;DHT22;23372;52.050;4.810;2022-07-29T11:58:05;27.40;99.90
37528;DHT22;23372;52.050;4.810;2022-07-29T12:00:32;27.60;99.90
37528;DHT22;23372;52.050;4.810;2022-07-29T12:03:01;27.40;99.90
37528;DHT22;23372;52.050;4.810;2022-07-29T12:05:35;27.50;99.90
37528;DHT22;23372;52.050;4.810;2022-07-29T12:08:16;27.80;99.90
37528;DHT22;23372;52.050;4.810;2022-07-29T12:10:45;27.40;99.90
37528;DHT22;23372;52.050;4.810;2022-07-29T12:13:13;27.20;99.90
37528;DHT22;23372;52.050;4.810;2022-07-29T12:15:39;27.30;99.90
37528;DHT22;23372;52.050;4.810;2022-07-29T12:18:13;27.50;99.90
37528;DHT22;23372;52.050;4.810;2022-07-29T12:20:39;27.90;99.90
37528;DHT22;23372;52.050;4.810;2022-07-29T12:23:07;28.00;99.90
37528;DHT22;23372;52.050;4.810;2022-07-29T12:25:34;27.60;99.90
37528;DHT22;23372;52.050;4.810;2022-07-29T12:28:04;27.70;99.90
37528;DHT22;23372;52.050;4.810;2022-07-29T12:33:01;28.30;99.90
37528;DHT22;23372;52.050;4.810;2022-07-29T12:35:26;28.40;99.90
37528;DHT22;23372;52.050;4.810;2022-07-29T12:37:52;27.90;99.90
37528;DHT22;23372;52.050;4.810;2022-07-29T12:40:20;28.10;99.90
37528;DHT22;23372;52.050;4.810;2022-07-29T12:43:06;28.30;99.90
37528;DHT22;23372;52.050;4.810;2022-07-29T12:45:38;28.70;99.90
37528;DHT22;23372;52.050;4.810;2022-07-29T12:48:05;28.80;99.90
37528;DHT22;23372;52.050;4.810;2022-07-29T12:50:32;28.10;99.90
37528;DHT22;23372;52.050;4.810;2022-07-29T12:53:17;28.10;99.90
37528;DHT22;23372;52.050;4.810;2022-07-29T12:55:49;28.10;99.90
37528;DHT22;23372;52.050;4.810;2022-07-29T12:58:37;28.30;99.90
37528;DHT22;23372;52.050;4.810;2022-07-29T13:01:06;28.60;99.90
37528;DHT22;23372;52.050;4.810;2022-07-29T13:06:34;28.00;99.90
37528;DHT22;23372;52.050;4.810;2022-07-29T13:11:33;27.70;99.90
37528;DHT22;23372;52.050;4.810;2022-07-29T13:13:59;28.10;99.90
37528;DHT22;23372;52.050;4.810;2022-07-29T13:16:25;28.70;99.90
37528;DHT22;23372;52.050;4.810;2022-07-29T13:19:03;28.90;99.90
37528;DHT22;23372;52.050;4.810;2022-07-29T13:21:29;29.10;99.90
37528;DHT22;23372;52.050;4.810;2022-07-29T13:23:55;29.10;99.90
37528;DHT22;23372;52.050;4.810;2022-07-29T13:26:20;28.60;99.90
37528;DHT22;23372;52.050;4.810;2022-07-29T13:28:46;28.40;99.90
37528;DHT22;23372;52.050;4.810;2022-07-29T13:31:11;28.60;99.90
37528;DHT22;23372;52.050;4.810;2022-07-29T13:33:37;28.60;99.90
37528;DHT22;23372;52.050;4.810;2022-07-29T13:36:02;28.40;99.90
37528;DHT22;23372;52.050;4.810;2022-07-29T13:38:28;28.90;99.90
37528;DHT22;23372;52.050;4.810;2022-07-29T13:40:53;29.30;99.90
37528;DHT22;23372;52.050;4.810;2022-07-29T13:43:19;29.50;99.90
37528;DHT22;23372;52.050;4.810;2022-07-29T13:45:45;29.50;99.90
37528;DHT22;23372;52.050;4.810;2022-07-29T13:48:10;29.40;99.90
37528;DHT22;23372;52.050;4.810;2022-07-29T13:50:36;28.90;99.90
37528;DHT22;23372;52.050;4.810;2022-07-29T13:53:01;28.20;99.90
37528;DHT22;23372;52.050;4.810;2022-07-29T13:55:27;27.90;99.90
37528;DHT22;23372;52.050;4.810;2022-07-29T13:57:53;28.30;99.90
37528;DHT22;23372;52.050;4.810;2022-07-29T14:00:18;28.70;99.90
37528;DHT22;23372;52.050;4.810;2022-07-29T14:02:44;29.00;99.90
37528;DHT22;23372;52.050;4.810;2022-07-29T14:05:10;29.10;99.90
37528;DHT22;23372;52.050;4.810;2022-07-29T14:07:39;29.40;99.90
37528;DHT22;23372;52.050;4.810;2022-07-29T14:10:05;29.60;99.90
37528;DHT22;23372;52.050;4.810;2022-07-29T14:12:31;29.40;99.90
37528;DHT22;23372;52.050;4.810;2022-07-29T14:14:56;29.50;99.90
37528;DHT22;23372;52.050;4.810;2022-07-29T14:17:22;29.40;99.90
37528;DHT22;23372;52.050;4.810;2022-07-29T14:19:48;29.30;99.90
37528;DHT22;23372;52.050;4.810;2022-07-29T14:22:13;29.40;99.90
37528;DHT22;23372;52.050;4.810;2022-07-29T14:24:39;29.00;99.90
37528;DHT22;23372;52.050;4.810;2022-07-29T14:27:06;28.90;99.90
37528;DHT22;23372;52.050;4.810;2022-07-29T14:29:32;28.60;99.90
37528;DHT22;23372;52.050;4.810;2022-07-29T14:31:57;28.70;99.90
37528;DHT22;23372;52.050;4.810;2022-07-29T14:34:23;28.60;99.90
37528;DHT22;23372;52.050;4.810;2022-07-29T14:36:49;28.50;99.90
37528;DHT22;23372;52.050;4.810;2022-07-29T14:39:14;28.30;99.90
37528;DHT22;23372;52.050;4.810;2022-07-29T14:41:41;28.30;99.90
37528;DHT22;23372;52.050;4.810;2022-07-29T14:44:07;28.60;99.90
37528;DHT22;23372;52.050;4.810;2022-07-29T14:46:32;28.70;99.90
37528;DHT22;23372;52.050;4.810;2022-07-29T14:48:58;28.80;99.90
37528;DHT22;23372;52.050;4.810;2022-07-29T14:51:24;29.00;99.90
37528;DHT22;23372;52.050;4.810;2022-07-29T14:53:49;29.00;99.90
37528;DHT22;23372;52.050;4.810;2022-07-29T14:56:15;28.80;99.90
37528;DHT22;23372;52.050;4.810;2022-07-29T14:58:41;28.10;99.90
37528;DHT22;23372;52.050;4.810;2022-07-29T15:01:06;28.20;99.90
37528;DHT22;23372;52.050;4.810;2022-07-29T15:03:32;28.10;99.90
37528;DHT22;23372;52.050;4.810;2022-07-29T15:05:57;28.50;99.90
37528;DHT22;23372;52.050;4.810;2022-07-29T15:08:23;28.70;99.90
37528;DHT22;23372;52.050;4.810;2022-07-29T15:10:50;28.90;99.90
37528;DHT22;23372;52.050;4.810;2022-07-29T15:13:16;29.00;99.90
37528;DHT22;23372;52.050;4.810;2022-07-29T15:15:41;28.90;99.90
37528;DHT22;23372;52.050;4.810;2022-07-29T15:18:07;29.00;99.90
37528;DHT22;23372;52.050;4.810;2022-07-29T15:20:32;28.60;99.90
37528;DHT22;23372;52.050;4.810;2022-07-29T15:22:58;28.60;99.90
37528;DHT22;23372;52.050;4.810;2022-07-29T15:25:24;29.00;99.90
37528;DHT22;23372;52.050;4.810;2022-07-29T15:27:50;28.40;99.90
37528;DHT22;23372;52.050;4.810;2022-07-29T15:30:16;27.70;99.90
37528;DHT22;23372;52.050;4.810;2022-07-29T15:32:43;28.20;99.90
37528;DHT22;23372;52.050;4.810;2022-07-29T15:35:08;28.40;99.90
37528;DHT22;23372;52.050;4.810;2022-07-29T15:37:36;28.50;99.90
37528;DHT22;23372;52.050;4.810;2022-07-29T15:40:02;28.30;99.90
37528;DHT22;23372;52.050;4.810;2022-07-29T15:42:27;27.80;99.90
37528;DHT22;23372;52.050;4.810;2022-07-29T15:44:53;28.10;99.90
37528;DHT22;23372;52.050;4.810;2022-07-29T15:47:19;28.00;99.90
37528;DHT22;23372;52.050;4.810;2022-07-29T15:49:45;27.90;99.90
37528;DHT22;23372;52.050;4.810;2022-07-29T15:52:10;27.70;99.90
37528;DHT22;23372;52.050;4.810;2022-07-29T15:54:38;27.60;99.90
37528;DHT22;23372;52.050;4.810;2022-07-29T15:57:05;27.50;99.90
37528;DHT22;23372;52.050;4.810;2022-07-29T15:59:32;27.40;99.90
37528;DHT22;23372;52.050;4.810;2022-07-29T16:01:58;27.30;99.90
37528;DHT22;23372;52.050;4.810;2022-07-29T16:04:25;26.20;99.90
37528;DHT22;23372;52.050;4.810;2022-07-29T16:06:50;26.40;99.90
37528;DHT22;23372;52.050;4.810;2022-07-29T16:09:16;26.70;99.90
37528;DHT22;23372;52.050;4.810;2022-07-29T16:11:42;26.90;99.90
37528;DHT22;23372;52.050;4.810;2022-07-29T16:14:08;26.90;99.90
37528;DHT22;23372;52.050;4.810;2022-07-29T16:16:35;26.80;99.90
37528;DHT22;23372;52.050;4.810;2022-07-29T16:19:01;26.50;99.90
37528;DHT22;23372;52.050;4.810;2022-07-29T16:21:27;26.60;99.90
37528;DHT22;23372;52.050;4.810;2022-07-29T16:23:52;26.60;99.90